L M Clayton Airport
KOLF : now visible

Airfield :











YOU CAN JOIN US ON...

 
LOGIN :

Register | Disclaimer

   EN    FR    IT 

 









Legend :    VFR   Marginal VFR   IFR   Intensive IFR   Very Intensive IFR
Visi :
Ceiling :
>= 8 km
>= 3000ft
5 to 8 km
1000 to 3000 ft
1500m to 5 km
500 to 1000 ft
800 to 1500m
200 to 500 ft
< 800m
< 200 ft
Symbols :   Thunderstorms  Fog  Heavy snow  Heavy precipitations  Wind > 20 kt






- Airport Elevation : 1986 ft


KOLF - L M Clayton

CURRENT METAR :
  • 200353Z AUTO 35011KT 10SM OVC036 01/M08 A3046 RMK AO2 SLP340 T00111078

EXPIRED METARs :
  • 200253Z AUTO 33007KT 10SM OVC039 02/M07 A3045 RMK AO2 SLP337 T00171072 53007
  • 200153Z AUTO 35009KT 10SM OVC041 02/M08 A3043 RMK AO2 SLP332 T00171078
  • 200053Z AUTO 34013KT 10SM OVC040 02/M08 A3043 RMK AO2 SLP332 T00171083
  • 192353Z AUTO 32011KT 10SM OVC038 02/M08 A3043 RMK AO2 SLP332 T00171078 10039 20000 53006

TAF KOLF
Valid from the 20 at 00:00 until the 21 at 00:00 UTC


192320Z 2000/2024 33012KT P6SM OVC040
FM200300 VRB06KT P6SM SKC
KZLC FIR / North America



MET'MAP, your aeronautical weather chart ! - Copyright ORBIFLY December 2007 - Disclaimer

ORBIFLY MET'MAP TEAM :

Programming & Development : Alexandra Zaïnal
Original concept : Baudouin d'Aumeries
Technical & hardware support : Manuel Goepfert
Assistance : Marc-Olivier Méhu




SOURCES & CREDITS :

   NOAA       Earth
Advisory